createdAt,value
2023-05-01T00:02:42.216Z,36.45
2023-05-01T00:05:45.269Z,36.58
2023-05-01T00:08:47.888Z,35.65
2023-05-01T00:11:50.538Z,31.88
2023-05-01T00:14:54.866Z,29.85
2023-05-01T00:17:57.289Z,24.73
2023-05-01T00:20:59.786Z,26.90
2023-05-01T00:24:02.100Z,25.63
2023-05-01T00:27:04.556Z,24.58
2023-05-01T00:30:07.755Z,28.70
2023-05-01T00:33:10.397Z,23.43
2023-05-01T00:36:13.012Z,29.08
2023-05-01T00:39:15.365Z,36.28
2023-05-01T00:42:17.756Z,24.38
2023-05-01T00:45:20.336Z,23.67
2023-05-01T00:48:22.648Z,26.17
2023-05-01T00:51:25.511Z,27.13
2023-05-01T00:54:28.623Z,24.23
2023-05-01T00:57:30.991Z,17.70
2023-05-01T01:00:33.408Z,21.35
2023-05-01T01:03:35.863Z,24.65
2023-05-01T01:07:01.391Z,22.85
2023-05-01T01:10:41.557Z,24.30
2023-05-01T01:14:05.430Z,24.30
2023-05-01T01:17:31.896Z,21.08
2023-05-01T01:20:56.477Z,22.45
2023-05-01T01:24:22.250Z,24.23
2023-05-01T01:27:47.719Z,24.27
2023-05-01T01:31:12.792Z,20.92
2023-05-01T01:37:22.951Z,25.05
2023-05-01T01:40:29.931Z,29.15
2023-05-01T01:43:36.885Z,29.20
2023-05-01T01:46:41.406Z,25.83
2023-05-01T01:49:46.745Z,24.92
2023-05-01T01:52:51.001Z,26.38
2023-05-01T01:55:55.714Z,23.00
2023-05-01T01:58:58.754Z,21.65
2023-05-01T02:02:02.948Z,23.00
2023-05-01T02:05:08.853Z,16.95
2023-05-01T02:08:13.599Z,23.88
2023-05-01T02:11:16.665Z,23.50
2023-05-01T02:14:19.744Z,23.63
2023-05-01T02:17:22.214Z,17.93
2023-05-01T02:20:25.105Z,18.00
2023-05-01T02:23:31.991Z,20.70
2023-05-01T02:26:42.797Z,17.48
2023-05-01T02:29:45.624Z,21.70
2023-05-01T02:32:48.096Z,23.38
2023-05-01T02:35:50.860Z,22.80
2023-05-01T02:38:54.877Z,26.45
2023-05-01T02:41:58.610Z,23.97
2023-05-01T02:45:06.715Z,26.83
2023-05-01T02:48:11.113Z,25.92
2023-05-01T02:51:13.673Z,27.20
2023-05-01T02:54:16.525Z,23.63
2023-05-01T02:57:20.505Z,15.50
2023-05-01T03:00:23.513Z,20.75
2023-05-01T03:03:26.398Z,17.75
2023-05-01T03:06:29.332Z,20.25
2023-05-01T03:09:31.967Z,19.55
2023-05-01T03:12:34.514Z,20.90
2023-05-01T03:15:38.093Z,18.80
2023-05-01T03:18:40.492Z,16.98
2023-05-01T03:21:42.863Z,19.23
2023-05-01T03:24:45.627Z,20.02
2023-05-01T03:27:49.005Z,23.52
2023-05-01T03:33:55.991Z,21.63
2023-05-01T03:36:58.408Z,25.20
2023-05-01T03:40:02.748Z,24.98
2023-05-01T03:43:31.905Z,20.50
2023-05-01T03:46:36.311Z,21.90
2023-05-01T03:49:41.646Z,22.83
2023-05-01T03:52:44.088Z,18.77
2023-05-01T03:55:46.537Z,16.60
2023-05-01T03:58:49.648Z,18.00
2023-05-01T04:01:52.204Z,21.60
2023-05-01T04:04:54.686Z,18.77
2023-05-01T04:07:58.179Z,18.83
2023-05-01T04:11:01.448Z,17.25
2023-05-01T04:14:04.237Z,13.77
2023-05-01T04:17:11.710Z,16.23
2023-05-01T04:20:14.189Z,16.40
2023-05-01T04:23:17.076Z,11.70
2023-05-01T04:26:19.612Z,16.45
2023-05-01T04:29:21.975Z,11.20
2023-05-01T04:32:24.594Z,10.90
2023-05-01T04:35:27.127Z,26.05
2023-05-01T04:38:31.198Z,17.85
2023-05-01T04:41:34.951Z,17.25
2023-05-01T04:44:39.235Z,20.52
2023-05-01T04:47:41.690Z,18.85
2023-05-01T04:50:44.438Z,20.45
2023-05-01T04:53:47.160Z,15.80
2023-05-01T04:56:58.472Z,18.33
2023-05-01T05:00:01.812Z,12.48
2023-05-01T05:03:07.077Z,15.40
2023-05-01T05:06:10.370Z,14.65
2023-05-01T05:09:13.545Z,9.63
2023-05-01T05:12:16.166Z,10.45
2023-05-01T05:15:18.694Z,10.00
2023-05-01T05:18:21.218Z,15.43
2023-05-01T05:21:23.718Z,11.63
2023-05-01T05:24:29.657Z,8.25
2023-05-01T05:27:36.599Z,9.68
2023-05-01T05:30:39.517Z,8.45
2023-05-01T05:36:48.481Z,10.35
2023-05-01T05:42:57.270Z,8.35
2023-05-01T05:46:02.079Z,8.55
2023-05-01T05:49:07.182Z,8.10
2023-05-01T05:52:10.080Z,9.00
2023-05-01T05:55:13.976Z,8.15
2023-05-01T05:58:24.704Z,10.02
2023-05-01T06:04:29.524Z,10.23
2023-05-01T06:07:32.347Z,9.05
2023-05-01T06:10:34.806Z,7.50
2023-05-01T06:13:37.134Z,8.65
2023-05-01T06:16:39.733Z,7.55
2023-05-01T06:19:42.117Z,7.80
2023-05-01T06:22:46.981Z,8.50
2023-05-01T06:26:04.878Z,6.63
2023-05-01T06:29:07.429Z,7.28
2023-05-01T06:32:10.040Z,6.30
2023-05-01T06:35:12.402Z,6.45
2023-05-01T06:38:15.807Z,9.57
2023-05-01T06:41:19.152Z,9.57
2023-05-01T06:44:21.575Z,7.25
2023-05-01T06:47:24.329Z,7.65
2023-05-01T06:50:26.810Z,6.65
2023-05-01T06:53:29.217Z,9.38
2023-05-01T06:56:32.574Z,12.95
2023-05-01T06:59:34.940Z,10.27
2023-05-01T07:02:38.390Z,9.80
2023-05-01T07:05:41.057Z,7.13
2023-05-01T07:08:44.576Z,8.75
2023-05-01T07:11:47.648Z,8.07
2023-05-01T07:14:50.228Z,6.65
2023-05-01T07:17:52.862Z,9.75
2023-05-01T07:20:55.197Z,9.13
2023-05-01T07:23:57.732Z,7.55
2023-05-01T07:27:00.234Z,11.48
2023-05-01T07:30:05.419Z,8.90
2023-05-01T07:33:07.904Z,9.88
2023-05-01T07:36:10.569Z,7.05
2023-05-01T07:39:14.833Z,9.25
2023-05-01T07:42:17.200Z,6.70
2023-05-01T07:45:19.630Z,9.10
2023-05-01T07:48:21.998Z,7.97
2023-05-01T07:51:24.462Z,6.47
2023-05-01T07:54:26.946Z,9.05
2023-05-01T07:57:30.227Z,7.90
2023-05-01T08:00:32.550Z,10.68
2023-05-01T08:03:35.370Z,7.13
2023-05-01T08:06:37.922Z,9.85
2023-05-01T08:09:40.282Z,7.78
2023-05-01T08:12:42.674Z,9.27
2023-05-01T08:15:47.608Z,6.80
2023-05-01T08:18:49.972Z,6.85
2023-05-01T08:21:52.345Z,6.60
2023-05-01T08:24:54.712Z,6.00
2023-05-01T08:27:57.166Z,23.92
2023-05-01T08:30:59.549Z,49.83
2023-05-01T08:34:01.966Z,8.95
2023-05-01T08:37:04.468Z,5.20
2023-05-01T08:40:10.366Z,3.63
2023-05-01T08:43:13.306Z,9.48
2023-05-01T08:46:26.964Z,8.00
2023-05-01T08:49:33.676Z,4.73
2023-05-01T08:52:37.074Z,6.60
2023-05-01T08:55:39.602Z,7.97
2023-05-01T08:58:42.592Z,6.07
2023-05-01T09:01:47.343Z,7.07
2023-05-01T09:04:50.203Z,8.00
2023-05-01T09:07:53.545Z,7.30
2023-05-01T09:10:58.205Z,6.00
2023-05-01T09:14:02.038Z,8.98
2023-05-01T09:17:04.498Z,5.55
2023-05-01T09:20:07.840Z,4.90
2023-05-01T09:23:10.834Z,7.50
2023-05-01T09:26:13.235Z,5.93
2023-05-01T09:29:39.291Z,5.80
2023-05-01T09:32:42.650Z,9.30
2023-05-01T09:35:55.803Z,3.47
2023-05-01T09:39:00.292Z,5.63
2023-05-01T09:42:03.304Z,4.65
2023-05-01T09:45:16.430Z,5.30
2023-05-01T09:48:19.457Z,6.95
2023-05-01T09:51:29.424Z,4.25
2023-05-01T09:54:31.785Z,5.72
2023-05-01T09:57:38.379Z,5.95
2023-05-01T10:00:50.063Z,7.10
2023-05-01T10:03:56.839Z,10.88
2023-05-01T10:07:02.104Z,5.57
2023-05-01T10:10:18.135Z,5.43
2023-05-01T10:13:20.708Z,4.40
2023-05-01T10:16:30.927Z,5.70
2023-05-01T10:19:34.495Z,6.57
2023-05-01T10:22:39.236Z,4.65
2023-05-01T10:25:43.712Z,8.32
2023-05-01T10:28:49.686Z,7.85
2023-05-01T10:31:52.914Z,5.45
2023-05-01T10:35:01.582Z,66.32
2023-05-01T10:38:11.211Z,9.70
2023-05-01T10:41:15.419Z,41.88
2023-05-01T10:44:25.814Z,15.05
2023-05-01T10:47:28.932Z,47.97
2023-05-01T10:50:31.466Z,79.35
2023-05-01T10:53:33.864Z,96.82
2023-05-01T10:56:36.284Z,22.60
2023-05-01T11:00:05.575Z,19.20
2023-05-01T11:03:23.367Z,42.38
2023-05-01T11:06:26.445Z,25.42
2023-05-01T11:09:43.993Z,35.70
2023-05-01T11:12:46.549Z,6.57
2023-05-01T11:15:49.094Z,5.63
2023-05-01T11:18:51.612Z,4.78
2023-05-01T11:21:54.396Z,8.05
2023-05-01T11:24:57.242Z,5.38
2023-05-01T11:28:04.279Z,6.90
2023-05-01T11:31:06.798Z,6.47
2023-05-01T11:34:09.728Z,13.60
2023-05-01T11:37:12.215Z,6.18
2023-05-01T11:40:24.901Z,5.70
2023-05-01T11:43:27.759Z,5.43
2023-05-01T11:46:32.490Z,3.65
2023-05-01T11:49:35.145Z,4.70
2023-05-01T11:52:55.444Z,5.90
2023-05-01T11:55:59.620Z,7.60
2023-05-01T11:59:16.746Z,10.77
2023-05-01T12:02:20.920Z,4.75
2023-05-01T12:05:24.744Z,6.63
2023-05-01T12:08:27.361Z,6.75
2023-05-01T12:11:29.850Z,5.95
2023-05-01T12:14:32.403Z,10.20
2023-05-01T12:17:34.845Z,9.30
2023-05-01T12:20:40.927Z,6.32
2023-05-01T12:23:43.449Z,63.20
2023-05-01T12:26:46.581Z,6.30
2023-05-01T12:29:50.409Z,6.20
2023-05-01T12:32:53.054Z,7.97
2023-05-01T12:35:55.729Z,6.10
2023-05-01T12:39:00.855Z,7.13
2023-05-01T12:42:03.348Z,3.95
2023-05-01T12:45:06.188Z,9.32
2023-05-01T12:48:15.177Z,16.27
2023-05-01T12:51:21.186Z,5.10
2023-05-01T12:54:29.812Z,4.43
2023-05-01T12:57:33.684Z,4.72
2023-05-01T13:01:02.572Z,4.15
2023-05-01T13:04:05.175Z,5.43
2023-05-01T13:07:20.870Z,3.05
2023-05-01T13:10:32.660Z,4.35
2023-05-01T13:13:36.169Z,3.83
2023-05-01T13:16:47.744Z,4.87
2023-05-01T13:20:01.502Z,4.18
2023-05-01T13:23:11.385Z,3.77
2023-05-01T13:26:16.384Z,3.90
2023-05-01T13:29:18.799Z,3.85
2023-05-01T13:32:21.369Z,11.32
2023-05-01T13:35:25.454Z,4.07
2023-05-01T13:38:27.984Z,3.23
2023-05-01T13:41:30.692Z,4.18
2023-05-01T13:44:33.084Z,2.75
2023-05-01T13:47:39.020Z,4.63
2023-05-01T13:50:43.030Z,4.47
2023-05-01T13:53:45.423Z,4.40
2023-05-01T13:56:47.920Z,4.55
2023-05-01T13:59:50.590Z,6.13
2023-05-01T14:02:54.333Z,4.47
2023-05-01T14:05:57.019Z,4.75
2023-05-01T14:09:04.123Z,3.80
2023-05-01T14:12:06.550Z,3.58
2023-05-01T14:15:11.923Z,4.05
2023-05-01T14:18:19.845Z,3.42
2023-05-01T14:21:28.235Z,4.82
2023-05-01T14:24:30.959Z,20.42
2023-05-01T14:27:34.594Z,3.28
2023-05-01T14:30:38.726Z,3.45
2023-05-01T14:33:45.686Z,5.15
2023-05-01T14:36:48.180Z,4.47
2023-05-01T14:39:50.701Z,6.93
2023-05-01T14:42:55.849Z,8.15
2023-05-01T14:45:58.668Z,3.50
2023-05-01T14:49:01.766Z,5.35
2023-05-01T14:52:04.363Z,4.65
2023-05-01T14:55:07.010Z,4.63
2023-05-01T14:58:09.508Z,5.50
2023-05-01T15:01:11.914Z,4.28
2023-05-01T15:04:14.480Z,4.32
2023-05-01T15:07:17.296Z,4.05
2023-05-01T15:10:20.914Z,5.60
2023-05-01T15:13:23.390Z,5.93
2023-05-01T15:16:25.919Z,4.10
2023-05-01T15:19:28.481Z,6.65
2023-05-01T15:22:31.455Z,5.25
2023-05-01T15:25:34.256Z,5.15
2023-05-01T15:28:36.773Z,5.28
2023-05-01T15:31:40.138Z,4.43
2023-05-01T15:34:43.046Z,7.20
2023-05-01T15:37:45.632Z,5.60
2023-05-01T15:40:50.186Z,4.53
2023-05-01T15:43:52.987Z,5.07
2023-05-01T15:46:55.950Z,6.05
2023-05-01T15:49:59.434Z,7.20
2023-05-01T15:53:02.478Z,6.40
2023-05-01T15:56:05.031Z,4.90
2023-05-01T15:59:09.924Z,8.90
2023-05-01T16:02:12.968Z,4.65
2023-05-01T16:05:21.600Z,11.27
2023-05-01T16:08:24.274Z,5.20
2023-05-01T16:11:26.893Z,5.65
2023-05-01T16:14:29.373Z,5.00
2023-05-01T16:17:33.972Z,5.53
2023-05-01T16:20:42.388Z,8.07
2023-05-01T16:23:45.358Z,5.75
2023-05-01T16:26:48.660Z,4.28
2023-05-01T16:29:51.020Z,6.28
2023-05-01T16:32:53.915Z,4.55
2023-05-01T16:35:57.699Z,6.28
2023-05-01T16:39:02.075Z,4.20
2023-05-01T16:42:04.884Z,4.75
2023-05-01T16:45:08.807Z,6.32
2023-05-01T16:48:11.623Z,7.85
2023-05-01T16:51:14.008Z,5.60
2023-05-01T16:54:17.724Z,6.85
2023-05-01T16:57:20.976Z,5.55
2023-05-01T17:00:24.097Z,6.88
2023-05-01T17:03:27.379Z,6.15
2023-05-01T17:06:30.092Z,3.53
2023-05-01T17:09:33.201Z,7.43
2023-05-01T17:12:35.756Z,5.45
2023-05-01T17:15:38.291Z,7.30
2023-05-01T17:18:41.375Z,4.20
2023-05-01T17:21:44.963Z,5.50
2023-05-01T17:24:48.036Z,2.73
2023-05-01T17:27:50.369Z,4.55
2023-05-01T17:30:52.869Z,5.40
2023-05-01T17:33:55.530Z,4.93
2023-05-01T17:36:58.223Z,6.07
2023-05-01T17:40:01.356Z,9.07
2023-05-01T17:43:04.429Z,4.40
2023-05-01T17:46:07.192Z,5.85
2023-05-01T17:49:09.685Z,7.93
2023-05-01T17:52:12.438Z,8.85
2023-05-01T17:55:17.822Z,6.75
2023-05-01T17:58:21.001Z,10.52
2023-05-01T18:01:23.960Z,14.45
2023-05-01T18:04:27.087Z,15.48
2023-05-01T18:07:30.889Z,12.02
2023-05-01T18:10:33.284Z,12.25
2023-05-01T18:13:39.729Z,7.22
2023-05-01T18:16:42.372Z,8.88
2023-05-01T18:19:44.923Z,9.45
2023-05-01T18:22:47.393Z,10.35
2023-05-01T18:25:50.200Z,6.15
2023-05-01T18:28:52.693Z,8.85
2023-05-01T18:31:55.573Z,7.68
2023-05-01T18:34:57.967Z,6.05
2023-05-01T18:38:00.477Z,8.52
2023-05-01T18:41:03.159Z,10.85
2023-05-01T18:44:05.637Z,10.52
2023-05-01T18:47:07.958Z,8.95
2023-05-01T18:50:11.455Z,8.77
2023-05-01T18:53:13.939Z,14.05
2023-05-01T18:56:17.022Z,9.95
2023-05-01T18:59:19.726Z,22.15
2023-05-01T19:02:22.380Z,9.65
2023-05-01T19:05:25.694Z,10.80
2023-05-01T19:08:28.246Z,8.27
2023-05-01T19:11:32.032Z,13.02
2023-05-01T19:14:34.372Z,7.88
2023-05-01T19:17:37.760Z,10.63
2023-05-01T19:20:40.476Z,9.00
2023-05-01T19:23:43.301Z,16.35
2023-05-01T19:26:45.706Z,17.40
2023-05-01T19:29:48.268Z,24.67
2023-05-01T19:32:52.063Z,26.92
2023-05-01T19:35:55.876Z,21.33
2023-05-01T19:38:58.351Z,24.20
2023-05-01T19:42:02.321Z,20.25
2023-05-01T19:45:05.338Z,19.48
2023-05-01T19:48:07.960Z,20.83
2023-05-01T19:51:10.328Z,16.38
2023-05-01T19:54:12.894Z,15.27
2023-05-01T19:57:16.536Z,17.00
2023-05-01T20:00:18.943Z,12.25
2023-05-01T20:03:21.652Z,11.93
2023-05-01T20:06:24.903Z,15.68
2023-05-01T20:09:27.543Z,13.48
2023-05-01T20:12:32.756Z,11.55
2023-05-01T20:15:35.483Z,13.05
2023-05-01T20:18:38.143Z,16.05
2023-05-01T20:21:40.624Z,16.48
2023-05-01T20:24:42.926Z,21.77
2023-05-01T20:27:46.610Z,12.52
2023-05-01T20:30:50.271Z,12.77
2023-05-01T20:33:52.739Z,8.00
2023-05-01T20:36:55.473Z,13.73
2023-05-01T20:39:58.224Z,15.98
2023-05-01T20:43:02.043Z,11.80
2023-05-01T20:46:04.694Z,11.13
2023-05-01T20:49:10.149Z,11.35
2023-05-01T20:52:12.926Z,13.68
2023-05-01T20:55:15.490Z,14.35
2023-05-01T20:58:17.815Z,14.88
2023-05-01T21:01:20.768Z,10.35
2023-05-01T21:04:24.139Z,9.10
2023-05-01T21:07:26.618Z,11.73
2023-05-01T21:10:29.367Z,12.38
2023-05-01T21:13:32.490Z,13.05
2023-05-01T21:16:36.063Z,13.13
2023-05-01T21:19:46.336Z,8.43
2023-05-01T21:22:49.073Z,11.95
2023-05-01T21:25:54.499Z,15.73
2023-05-01T21:28:58.561Z,11.13
2023-05-01T21:32:04.856Z,13.10
2023-05-01T21:35:08.916Z,12.48
2023-05-01T21:38:11.375Z,21.27
2023-05-01T21:41:15.752Z,11.18
2023-05-01T21:44:18.768Z,12.32
2023-05-01T21:47:21.352Z,10.88
2023-05-01T21:50:23.781Z,12.60
2023-05-01T21:53:29.107Z,13.50
2023-05-01T21:56:31.489Z,9.88
2023-05-01T21:59:39.251Z,10.48
2023-05-01T22:02:43.945Z,11.02
2023-05-01T22:05:46.483Z,9.57
2023-05-01T22:08:48.981Z,11.55
2023-05-01T22:11:51.492Z,9.88
2023-05-01T22:14:55.652Z,10.02
2023-05-01T22:17:58.050Z,9.43
2023-05-01T22:21:01.532Z,7.82
2023-05-01T22:24:04.205Z,9.07
2023-05-01T22:27:06.864Z,10.82
2023-05-01T22:30:09.665Z,10.52
2023-05-01T22:33:12.349Z,6.50
2023-05-01T22:36:14.865Z,8.25
2023-05-01T22:39:17.349Z,8.88
2023-05-01T22:42:20.076Z,8.57
2023-05-01T22:45:22.563Z,8.35
2023-05-01T22:48:26.585Z,7.25
2023-05-01T22:51:28.974Z,10.15
2023-05-01T22:54:31.299Z,8.77
2023-05-01T22:57:33.731Z,11.15
2023-05-01T23:00:36.718Z,10.65
2023-05-01T23:03:39.571Z,7.20
2023-05-01T23:06:42.295Z,9.57
2023-05-01T23:09:44.996Z,8.45
2023-05-01T23:12:48.308Z,10.63
2023-05-01T23:15:52.440Z,11.77
2023-05-01T23:18:56.958Z,10.55
2023-05-01T23:22:10.166Z,10.32
2023-05-01T23:25:20.669Z,11.90
2023-05-01T23:28:25.672Z,9.25
2023-05-01T23:34:51.447Z,7.35
2023-05-01T23:37:54.222Z,9.60
2023-05-01T23:40:56.668Z,10.05
2023-05-01T23:44:08.530Z,11.43
2023-05-01T23:47:16.829Z,11.13
2023-05-01T23:50:20.595Z,9.63
2023-05-01T23:53:23.051Z,11.98
2023-05-01T23:56:25.707Z,7.90
2023-05-01T23:59:28.350Z,10.25
